Terminal Aerodrome Forecast
Issued by NWS

Home | Current Version | Previous Version | Text Only | Print | Product List | Glossary On
Versions: 1 2 3 4 5 6 7 8 9 10 11 12 13 14 15
000
FTUS45 KSLC 280524
TAFPVU
TAF
KPVU 280524Z 2806/2906 14004KT P6SM SKC
     FM281800 26005KT P6SM SKC
     FM282200 31008KT P6SM FEW100
     FM290300 14005KT P6SM SKC
      AMD LTD TO CLD VIS AND WIND=

USA.gov is the U.S. government's official web portal to all federal, state and local government web resources and services.